Terminal Aerodrome Forecast
Issued by NWS Paducah, KY

Home | Current Version | Previous Version | Text Only | Print | Product List | Glossary On
Versions: 1 2 3 4 5 6 7 8 9 10 11 12 13
000
FTUS43 KPAH 171100
TAFEVV
TAF
KEVV 171128Z 1712/1812 00000KT 4SM BR MIFG SKC
     FM171400 17002KT P6SM SCT150
     FM172000 VRB03KT P6SM BKN120
     FM180600 00000KT 4SM BR BKN080=

USA.gov is the U.S. government's official web portal to all federal, state and local government web resources and services.